sensor_id;sensor_type;location;lat;lon;timestamp;temperature;humidity
19200;DHT22;9732;52.498;5.408;2022-07-23T00:00:58;17.80;99.90
19200;DHT22;9732;52.498;5.408;2022-07-23T00:03:24;17.90;99.90
19200;DHT22;9732;52.498;5.408;2022-07-23T00:05:53;17.90;99.90
19200;DHT22;9732;52.498;5.408;2022-07-23T00:08:19;17.80;99.90
19200;DHT22;9732;52.498;5.408;2022-07-23T00:10:46;17.90;99.90
19200;DHT22;9732;52.498;5.408;2022-07-23T00:13:13;18.00;99.90
19200;DHT22;9732;52.498;5.408;2022-07-23T00:15:40;17.80;99.90
19200;DHT22;9732;52.498;5.408;2022-07-23T00:18:06;17.80;99.90
19200;DHT22;9732;52.498;5.408;2022-07-23T00:20:33;17.90;99.90
19200;DHT22;9732;52.498;5.408;2022-07-23T00:23:02;17.90;99.90
19200;DHT22;9732;52.498;5.408;2022-07-23T00:25:29;17.90;99.90
19200;DHT22;9732;52.498;5.408;2022-07-23T00:27:55;17.90;99.90
19200;DHT22;9732;52.498;5.408;2022-07-23T00:30:22;17.80;99.90
19200;DHT22;9732;52.498;5.408;2022-07-23T00:32:51;17.80;99.90
19200;DHT22;9732;52.498;5.408;2022-07-23T00:35:20;17.80;99.90
19200;DHT22;9732;52.498;5.408;2022-07-23T00:37:47;17.90;99.90
19200;DHT22;9732;52.498;5.408;2022-07-23T00:40:15;17.80;99.90
19200;DHT22;9732;52.498;5.408;2022-07-23T00:42:43;17.80;99.90
19200;DHT22;9732;52.498;5.408;2022-07-23T00:45:10;17.80;99.90
19200;DHT22;9732;52.498;5.408;2022-07-23T00:47:37;17.80;99.90
19200;DHT22;9732;52.498;5.408;2022-07-23T00:50:05;17.90;99.90
19200;DHT22;9732;52.498;5.408;2022-07-23T00:52:34;17.90;99.90
19200;DHT22;9732;52.498;5.408;2022-07-23T00:55:01;17.80;99.90
19200;DHT22;9732;52.498;5.408;2022-07-23T00:57:29;17.70;99.90
19200;DHT22;9732;52.498;5.408;2022-07-23T00:59:56;17.80;99.90
19200;DHT22;9732;52.498;5.408;2022-07-23T01:02:23;17.80;99.90
19200;DHT22;9732;52.498;5.408;2022-07-23T01:04:50;17.80;99.90
19200;DHT22;9732;52.498;5.408;2022-07-23T03:59:19;17.00;99.90
19200;DHT22;9732;52.498;5.408;2022-07-23T04:01:46;17.00;99.90
19200;DHT22;9732;52.498;5.408;2022-07-23T04:04:12;17.10;99.90
19200;DHT22;9732;52.498;5.408;2022-07-23T04:06:39;17.10;99.90
19200;DHT22;9732;52.498;5.408;2022-07-23T04:09:06;17.00;99.90
19200;DHT22;9732;52.498;5.408;2022-07-23T04:11:33;17.10;99.90
19200;DHT22;9732;52.498;5.408;2022-07-23T04:14:00;17.00;99.90
19200;DHT22;9732;52.498;5.408;2022-07-23T04:16:28;17.10;99.90
19200;DHT22;9732;52.498;5.408;2022-07-23T04:18:56;17.00;99.90
19200;DHT22;9732;52.498;5.408;2022-07-23T04:21:23;17.00;99.90
19200;DHT22;9732;52.498;5.408;2022-07-23T04:23:50;17.00;99.90
19200;DHT22;9732;52.498;5.408;2022-07-23T04:26:17;17.00;99.90
19200;DHT22;9732;52.498;5.408;2022-07-23T04:28:43;17.10;99.90
19200;DHT22;9732;52.498;5.408;2022-07-23T04:31:10;17.00;99.90
19200;DHT22;9732;52.498;5.408;2022-07-23T04:33:38;17.00;99.90
19200;DHT22;9732;52.498;5.408;2022-07-23T04:36:05;17.00;99.90
19200;DHT22;9732;52.498;5.408;2022-07-23T04:38:32;17.10;99.90
19200;DHT22;9732;52.498;5.408;2022-07-23T04:40:59;17.00;99.90
19200;DHT22;9732;52.498;5.408;2022-07-23T04:43:26;17.00;99.90
19200;DHT22;9732;52.498;5.408;2022-07-23T04:45:53;16.90;99.90
19200;DHT22;9732;52.498;5.408;2022-07-23T04:48:20;16.90;99.90
19200;DHT22;9732;52.498;5.408;2022-07-23T04:50:48;17.00;99.90
19200;DHT22;9732;52.498;5.408;2022-07-23T04:53:14;17.00;99.90
19200;DHT22;9732;52.498;5.408;2022-07-23T04:55:41;17.10;99.90
19200;DHT22;9732;52.498;5.408;2022-07-23T04:58:08;17.10;99.90
19200;DHT22;9732;52.498;5.408;2022-07-23T05:00:35;17.20;99.90
19200;DHT22;9732;52.498;5.408;2022-07-23T05:03:01;17.20;99.90
19200;DHT22;9732;52.498;5.408;2022-07-23T05:05:28;17.30;99.90
19200;DHT22;9732;52.498;5.408;2022-07-23T05:07:56;17.30;99.90
19200;DHT22;9732;52.498;5.408;2022-07-23T05:10:23;17.30;99.90
19200;DHT22;9732;52.498;5.408;2022-07-23T05:12:50;17.30;99.90
19200;DHT22;9732;52.498;5.408;2022-07-23T05:15:16;17.30;99.90
19200;DHT22;9732;52.498;5.408;2022-07-23T05:17:43;17.40;99.90
19200;DHT22;9732;52.498;5.408;2022-07-23T05:20:10;17.50;99.90
19200;DHT22;9732;52.498;5.408;2022-07-23T05:22:37;17.40;99.90
19200;DHT22;9732;52.498;5.408;2022-07-23T05:25:06;17.40;99.90
19200;DHT22;9732;52.498;5.408;2022-07-23T05:27:33;17.50;99.90
19200;DHT22;9732;52.498;5.408;2022-07-23T05:30:00;17.50;99.90
19200;DHT22;9732;52.498;5.408;2022-07-23T05:32:26;17.50;99.90
19200;DHT22;9732;52.498;5.408;2022-07-23T05:34:53;17.60;99.90
19200;DHT22;9732;52.498;5.408;2022-07-23T05:37:20;17.60;99.90
19200;DHT22;9732;52.498;5.408;2022-07-23T05:39:47;17.60;99.90
19200;DHT22;9732;52.498;5.408;2022-07-23T05:42:15;17.60;99.90
19200;DHT22;9732;52.498;5.408;2022-07-23T05:44:41;17.60;99.90
19200;DHT22;9732;52.498;5.408;2022-07-23T05:47:08;17.70;99.90
19200;DHT22;9732;52.498;5.408;2022-07-23T05:49:36;17.70;99.90
19200;DHT22;9732;52.498;5.408;2022-07-23T05:52:04;17.70;99.90
19200;DHT22;9732;52.498;5.408;2022-07-23T05:54:31;17.70;99.90
19200;DHT22;9732;52.498;5.408;2022-07-23T05:57:00;17.80;99.90
19200;DHT22;9732;52.498;5.408;2022-07-23T05:59:28;17.80;99.90
19200;DHT22;9732;52.498;5.408;2022-07-23T06:01:55;17.80;99.90
19200;DHT22;9732;52.498;5.408;2022-07-23T06:04:22;17.80;99.90
19200;DHT22;9732;52.498;5.408;2022-07-23T06:06:49;17.90;99.90
19200;DHT22;9732;52.498;5.408;2022-07-23T06:09:15;17.90;99.90
19200;DHT22;9732;52.498;5.408;2022-07-23T06:11:42;18.00;99.90
19200;DHT22;9732;52.498;5.408;2022-07-23T06:14:09;18.00;99.90
19200;DHT22;9732;52.498;5.408;2022-07-23T06:16:37;18.00;99.90
19200;DHT22;9732;52.498;5.408;2022-07-23T06:19:04;18.00;99.90
19200;DHT22;9732;52.498;5.408;2022-07-23T06:21:30;18.00;99.90
19200;DHT22;9732;52.498;5.408;2022-07-23T06:23:57;18.00;99.90
19200;DHT22;9732;52.498;5.408;2022-07-23T06:26:24;18.10;99.90
19200;DHT22;9732;52.498;5.408;2022-07-23T06:28:50;18.10;99.90
19200;DHT22;9732;52.498;5.408;2022-07-23T06:31:17;18.10;99.90
19200;DHT22;9732;52.498;5.408;2022-07-23T06:33:45;18.10;99.90
19200;DHT22;9732;52.498;5.408;2022-07-23T06:36:12;18.20;99.90
19200;DHT22;9732;52.498;5.408;2022-07-23T06:38:38;18.30;99.90
19200;DHT22;9732;52.498;5.408;2022-07-23T06:41:05;18.30;99.90
19200;DHT22;9732;52.498;5.408;2022-07-23T06:43:32;18.40;99.90
19200;DHT22;9732;52.498;5.408;2022-07-23T06:45:59;18.40;99.90
19200;DHT22;9732;52.498;5.408;2022-07-23T06:48:25;18.50;99.90
19200;DHT22;9732;52.498;5.408;2022-07-23T06:50:54;18.60;99.90
19200;DHT22;9732;52.498;5.408;2022-07-23T06:53:21;18.60;99.90
19200;DHT22;9732;52.498;5.408;2022-07-23T06:55:48;18.70;99.90
19200;DHT22;9732;52.498;5.408;2022-07-23T06:58:15;18.70;99.90
19200;DHT22;9732;52.498;5.408;2022-07-23T07:00:41;18.80;99.90
19200;DHT22;9732;52.498;5.408;2022-07-23T07:03:08;18.80;99.90
19200;DHT22;9732;52.498;5.408;2022-07-23T07:05:35;18.90;99.90
19200;DHT22;9732;52.498;5.408;2022-07-23T07:08:03;18.90;99.90
19200;DHT22;9732;52.498;5.408;2022-07-23T07:10:30;19.00;99.90
19200;DHT22;9732;52.498;5.408;2022-07-23T07:12:57;18.90;99.90
19200;DHT22;9732;52.498;5.408;2022-07-23T07:15:24;18.90;99.90
19200;DHT22;9732;52.498;5.408;2022-07-23T07:17:51;18.90;99.90
19200;DHT22;9732;52.498;5.408;2022-07-23T07:20:17;19.00;99.90
19200;DHT22;9732;52.498;5.408;2022-07-23T07:22:44;19.00;99.90
19200;DHT22;9732;52.498;5.408;2022-07-23T07:25:13;19.00;99.90
19200;DHT22;9732;52.498;5.408;2022-07-23T07:27:40;19.10;99.90
19200;DHT22;9732;52.498;5.408;2022-07-23T07:30:10;19.20;99.90
19200;DHT22;9732;52.498;5.408;2022-07-23T07:32:37;19.20;99.90
19200;DHT22;9732;52.498;5.408;2022-07-23T07:35:05;19.30;99.90
19200;DHT22;9732;52.498;5.408;2022-07-23T07:37:32;19.30;99.90
19200;DHT22;9732;52.498;5.408;2022-07-23T07:39:59;19.40;99.90
19200;DHT22;9732;52.498;5.408;2022-07-23T07:42:27;19.40;99.90
19200;DHT22;9732;52.498;5.408;2022-07-23T07:44:53;19.60;99.90
19200;DHT22;9732;52.498;5.408;2022-07-23T07:47:20;19.60;99.90
19200;DHT22;9732;52.498;5.408;2022-07-23T07:49:47;19.80;99.90
19200;DHT22;9732;52.498;5.408;2022-07-23T07:52:13;19.90;99.90
19200;DHT22;9732;52.498;5.408;2022-07-23T07:54:40;20.00;99.90
19200;DHT22;9732;52.498;5.408;2022-07-23T07:57:08;20.10;99.90
19200;DHT22;9732;52.498;5.408;2022-07-23T07:59:36;20.20;99.90
19200;DHT22;9732;52.498;5.408;2022-07-23T08:02:03;20.30;99.90
19200;DHT22;9732;52.498;5.408;2022-07-23T08:04:30;20.30;99.90
19200;DHT22;9732;52.498;5.408;2022-07-23T08:06:56;20.30;99.90
19200;DHT22;9732;52.498;5.408;2022-07-23T08:09:23;20.30;99.90
19200;DHT22;9732;52.498;5.408;2022-07-23T08:11:50;20.30;99.90
19200;DHT22;9732;52.498;5.408;2022-07-23T08:14:17;20.30;99.90
19200;DHT22;9732;52.498;5.408;2022-07-23T08:16:45;20.40;99.90
19200;DHT22;9732;52.498;5.408;2022-07-23T08:19:12;20.40;99.90
19200;DHT22;9732;52.498;5.408;2022-07-23T08:21:39;20.50;99.90
19200;DHT22;9732;52.498;5.408;2022-07-23T08:24:06;20.60;99.90
19200;DHT22;9732;52.498;5.408;2022-07-23T08:26:33;20.70;99.90
19200;DHT22;9732;52.498;5.408;2022-07-23T08:29:00;20.80;99.90
19200;DHT22;9732;52.498;5.408;2022-07-23T08:31:27;20.80;99.90
19200;DHT22;9732;52.498;5.408;2022-07-23T08:33:55;20.80;99.90
19200;DHT22;9732;52.498;5.408;2022-07-23T08:36:22;20.80;99.90
19200;DHT22;9732;52.498;5.408;2022-07-23T08:38:49;20.80;99.90
19200;DHT22;9732;52.498;5.408;2022-07-23T08:41:16;20.80;99.90
19200;DHT22;9732;52.498;5.408;2022-07-23T08:43:43;20.80;99.90
19200;DHT22;9732;52.498;5.408;2022-07-23T08:46:11;20.70;99.90
19200;DHT22;9732;52.498;5.408;2022-07-23T08:48:38;20.70;99.90
19200;DHT22;9732;52.498;5.408;2022-07-23T08:51:07;20.70;99.90
19200;DHT22;9732;52.498;5.408;2022-07-23T08:53:36;20.70;99.90
19200;DHT22;9732;52.498;5.408;2022-07-23T08:56:05;20.80;99.90
19200;DHT22;9732;52.498;5.408;2022-07-23T08:58:32;20.90;99.90
19200;DHT22;9732;52.498;5.408;2022-07-23T09:01:00;21.00;99.90
19200;DHT22;9732;52.498;5.408;2022-07-23T09:03:29;21.00;99.90
19200;DHT22;9732;52.498;5.408;2022-07-23T09:05:57;21.00;99.90
19200;DHT22;9732;52.498;5.408;2022-07-23T09:08:33;21.20;99.90
19200;DHT22;9732;52.498;5.408;2022-07-23T09:11:01;21.30;99.90
19200;DHT22;9732;52.498;5.408;2022-07-23T09:13:31;21.40;99.90
19200;DHT22;9732;52.498;5.408;2022-07-23T09:16:01;21.40;99.90
19200;DHT22;9732;52.498;5.408;2022-07-23T09:18:39;21.60;99.90
19200;DHT22;9732;52.498;5.408;2022-07-23T09:21:17;21.60;99.90
19200;DHT22;9732;52.498;5.408;2022-07-23T09:23:48;21.80;99.90
19200;DHT22;9732;52.498;5.408;2022-07-23T09:26:30;21.90;99.90
19200;DHT22;9732;52.498;5.408;2022-07-23T09:29:00;22.00;99.90
19200;DHT22;9732;52.498;5.408;2022-07-23T09:31:32;22.20;99.90
19200;DHT22;9732;52.498;5.408;2022-07-23T09:34:09;22.30;99.90
19200;DHT22;9732;52.498;5.408;2022-07-23T09:36:36;22.50;99.90
19200;DHT22;9732;52.498;5.408;2022-07-23T09:39:05;22.60;99.90
19200;DHT22;9732;52.498;5.408;2022-07-23T09:41:37;22.90;99.90
19200;DHT22;9732;52.498;5.408;2022-07-23T09:44:09;23.10;99.90
19200;DHT22;9732;52.498;5.408;2022-07-23T09:46:37;23.30;99.90
19200;DHT22;9732;52.498;5.408;2022-07-23T09:49:15;23.50;99.90
19200;DHT22;9732;52.498;5.408;2022-07-23T09:51:48;23.70;99.90
19200;DHT22;9732;52.498;5.408;2022-07-23T09:54:28;23.70;99.90
19200;DHT22;9732;52.498;5.408;2022-07-23T09:56:57;24.00;99.90
19200;DHT22;9732;52.498;5.408;2022-07-23T09:59:26;24.40;99.90
19200;DHT22;9732;52.498;5.408;2022-07-23T10:01:55;24.90;99.90
19200;DHT22;9732;52.498;5.408;2022-07-23T10:04:23;25.10;99.90
19200;DHT22;9732;52.498;5.408;2022-07-23T10:06:52;25.30;99.90
19200;DHT22;9732;52.498;5.408;2022-07-23T10:09:25;25.70;99.90
19200;DHT22;9732;52.498;5.408;2022-07-23T10:11:54;26.00;99.90
19200;DHT22;9732;52.498;5.408;2022-07-23T10:14:24;26.40;99.90
19200;DHT22;9732;52.498;5.408;2022-07-23T10:16:52;26.70;99.90
19200;DHT22;9732;52.498;5.408;2022-07-23T10:19:19;26.90;99.90
19200;DHT22;9732;52.498;5.408;2022-07-23T10:21:49;27.10;99.90
19200;DHT22;9732;52.498;5.408;2022-07-23T10:24:25;27.10;99.90
19200;DHT22;9732;52.498;5.408;2022-07-23T10:27:03;27.30;99.90
19200;DHT22;9732;52.498;5.408;2022-07-23T10:29:42;27.30;99.90
19200;DHT22;9732;52.498;5.408;2022-07-23T10:32:18;27.80;99.90
19200;DHT22;9732;52.498;5.408;2022-07-23T10:34:52;28.10;99.90
19200;DHT22;9732;52.498;5.408;2022-07-23T10:37:24;28.30;99.50
19200;DHT22;9732;52.498;5.408;2022-07-23T10:40:13;28.60;98.60
19200;DHT22;9732;52.498;5.408;2022-07-23T10:42:42;29.00;98.30
19200;DHT22;9732;52.498;5.408;2022-07-23T10:45:28;29.00;97.80
19200;DHT22;9732;52.498;5.408;2022-07-23T10:48:05;29.30;98.40
19200;DHT22;9732;52.498;5.408;2022-07-23T10:50:38;29.40;97.30
19200;DHT22;9732;52.498;5.408;2022-07-23T10:53:12;29.70;98.00
19200;DHT22;9732;52.498;5.408;2022-07-23T10:55:43;30.00;96.90
19200;DHT22;9732;52.498;5.408;2022-07-23T10:58:10;30.10;96.90
19200;DHT22;9732;52.498;5.408;2022-07-23T11:00:37;30.10;95.60
19200;DHT22;9732;52.498;5.408;2022-07-23T11:03:06;30.10;95.00
19200;DHT22;9732;52.498;5.408;2022-07-23T11:05:52;30.00;96.40
19200;DHT22;9732;52.498;5.408;2022-07-23T11:08:19;30.10;96.40
19200;DHT22;9732;52.498;5.408;2022-07-23T11:10:52;30.00;95.50
19200;DHT22;9732;52.498;5.408;2022-07-23T11:13:40;30.20;95.40
19200;DHT22;9732;52.498;5.408;2022-07-23T11:16:15;30.20;96.10
19200;DHT22;9732;52.498;5.408;2022-07-23T11:18:59;30.40;95.30
19200;DHT22;9732;52.498;5.408;2022-07-23T11:21:46;30.40;95.40
19200;DHT22;9732;52.498;5.408;2022-07-23T11:24:21;30.50;95.60
19200;DHT22;9732;52.498;5.408;2022-07-23T11:26:53;30.70;95.30
19200;DHT22;9732;52.498;5.408;2022-07-23T11:29:45;30.90;95.10
19200;DHT22;9732;52.498;5.408;2022-07-23T11:32:32;30.30;95.10
19200;DHT22;9732;52.498;5.408;2022-07-23T11:35:01;29.80;95.00
19200;DHT22;9732;52.498;5.408;2022-07-23T11:37:39;29.00;96.80
19200;DHT22;9732;52.498;5.408;2022-07-23T11:40:09;28.80;96.80
19200;DHT22;9732;52.498;5.408;2022-07-23T11:42:39;29.00;96.30
19200;DHT22;9732;52.498;5.408;2022-07-23T11:45:07;29.40;95.50
19200;DHT22;9732;52.498;5.408;2022-07-23T11:47:35;30.10;95.10
19200;DHT22;9732;52.498;5.408;2022-07-23T11:50:04;30.30;95.10
19200;DHT22;9732;52.498;5.408;2022-07-23T11:52:32;30.50;94.40
19200;DHT22;9732;52.498;5.408;2022-07-23T11:55:00;30.90;94.30
19200;DHT22;9732;52.498;5.408;2022-07-23T11:57:29;31.00;94.60
19200;DHT22;9732;52.498;5.408;2022-07-23T12:00:02;31.00;93.80
19200;DHT22;9732;52.498;5.408;2022-07-23T12:02:30;31.20;94.20
19200;DHT22;9732;52.498;5.408;2022-07-23T12:04:56;31.20;94.20
19200;DHT22;9732;52.498;5.408;2022-07-23T12:07:25;31.60;94.70
19200;DHT22;9732;52.498;5.408;2022-07-23T12:09:52;31.70;93.80
19200;DHT22;9732;52.498;5.408;2022-07-23T12:12:19;31.70;93.50
19200;DHT22;9732;52.498;5.408;2022-07-23T12:14:50;31.60;92.90
19200;DHT22;9732;52.498;5.408;2022-07-23T12:17:20;31.50;93.40
19200;DHT22;9732;52.498;5.408;2022-07-23T12:19:47;31.40;94.50
19200;DHT22;9732;52.498;5.408;2022-07-23T12:22:14;31.50;94.10
19200;DHT22;9732;52.498;5.408;2022-07-23T12:24:55;31.40;93.10
19200;DHT22;9732;52.498;5.408;2022-07-23T12:27:23;31.20;93.90
19200;DHT22;9732;52.498;5.408;2022-07-23T12:29:50;31.30;93.70
19200;DHT22;9732;52.498;5.408;2022-07-23T12:32:21;31.30;93.90
19200;DHT22;9732;52.498;5.408;2022-07-23T12:34:49;31.40;93.40
19200;DHT22;9732;52.498;5.408;2022-07-23T12:37:27;31.40;94.80
19200;DHT22;9732;52.498;5.408;2022-07-23T12:39:54;31.30;94.10
19200;DHT22;9732;52.498;5.408;2022-07-23T12:42:21;31.40;94.30
19200;DHT22;9732;52.498;5.408;2022-07-23T12:45:09;31.40;94.50
19200;DHT22;9732;52.498;5.408;2022-07-23T12:47:56;31.50;93.00
19200;DHT22;9732;52.498;5.408;2022-07-23T12:50:41;31.70;93.40
19200;DHT22;9732;52.498;5.408;2022-07-23T12:53:11;31.70;93.10
19200;DHT22;9732;52.498;5.408;2022-07-23T12:55:38;31.60;92.70
19200;DHT22;9732;52.498;5.408;2022-07-23T12:58:11;31.40;92.80
19200;DHT22;9732;52.498;5.408;2022-07-23T13:00:58;31.60;93.60
19200;DHT22;9732;52.498;5.408;2022-07-23T13:03:30;31.60;93.00
19200;DHT22;9732;52.498;5.408;2022-07-23T13:05:57;31.60;92.80
19200;DHT22;9732;52.498;5.408;2022-07-23T13:08:26;31.80;92.60
19200;DHT22;9732;52.498;5.408;2022-07-23T13:10:53;31.80;92.20
19200;DHT22;9732;52.498;5.408;2022-07-23T13:13:22;31.90;93.00
19200;DHT22;9732;52.498;5.408;2022-07-23T13:15:49;31.80;93.10
19200;DHT22;9732;52.498;5.408;2022-07-23T13:18:16;32.10;92.90
19200;DHT22;9732;52.498;5.408;2022-07-23T13:20:45;31.80;93.10
19200;DHT22;9732;52.498;5.408;2022-07-23T13:23:12;31.90;92.80
19200;DHT22;9732;52.498;5.408;2022-07-23T13:25:40;31.80;92.80
19200;DHT22;9732;52.498;5.408;2022-07-23T13:28:06;31.70;92.80
19200;DHT22;9732;52.498;5.408;2022-07-23T13:30:34;31.90;93.00
19200;DHT22;9732;52.498;5.408;2022-07-23T13:33:02;31.80;92.40
19200;DHT22;9732;52.498;5.408;2022-07-23T13:35:29;31.70;93.20
19200;DHT22;9732;52.498;5.408;2022-07-23T13:37:57;31.80;94.00
19200;DHT22;9732;52.498;5.408;2022-07-23T13:40:24;31.80;93.20
19200;DHT22;9732;52.498;5.408;2022-07-23T13:42:50;31.90;93.60
19200;DHT22;9732;52.498;5.408;2022-07-23T13:45:17;31.80;93.40
19200;DHT22;9732;52.498;5.408;2022-07-23T13:47:44;31.70;93.50
19200;DHT22;9732;52.498;5.408;2022-07-23T13:50:11;31.60;94.50
19200;DHT22;9732;52.498;5.408;2022-07-23T13:52:38;31.60;93.50
19200;DHT22;9732;52.498;5.408;2022-07-23T13:55:06;31.50;93.50
19200;DHT22;9732;52.498;5.408;2022-07-23T13:57:33;31.40;94.40
19200;DHT22;9732;52.498;5.408;2022-07-23T14:00:00;31.20;94.40
19200;DHT22;9732;52.498;5.408;2022-07-23T14:02:28;31.10;94.10
19200;DHT22;9732;52.498;5.408;2022-07-23T14:04:55;30.80;94.90
19200;DHT22;9732;52.498;5.408;2022-07-23T14:07:22;30.70;94.80
19200;DHT22;9732;52.498;5.408;2022-07-23T14:09:49;30.50;95.10
19200;DHT22;9732;52.498;5.408;2022-07-23T14:12:17;30.50;94.50
19200;DHT22;9732;52.498;5.408;2022-07-23T14:14:43;30.30;94.40
19200;DHT22;9732;52.498;5.408;2022-07-23T14:17:10;30.30;94.80
19200;DHT22;9732;52.498;5.408;2022-07-23T14:19:37;30.20;95.00
19200;DHT22;9732;52.498;5.408;2022-07-23T14:22:04;30.20;94.80
19200;DHT22;9732;52.498;5.408;2022-07-23T14:24:31;30.20;95.60
19200;DHT22;9732;52.498;5.408;2022-07-23T14:26:59;30.10;95.80
19200;DHT22;9732;52.498;5.408;2022-07-23T14:29:27;30.00;94.90
19200;DHT22;9732;52.498;5.408;2022-07-23T14:31:54;30.00;95.70
19200;DHT22;9732;52.498;5.408;2022-07-23T14:34:21;30.10;95.70
19200;DHT22;9732;52.498;5.408;2022-07-23T14:36:47;30.20;95.70
19200;DHT22;9732;52.498;5.408;2022-07-23T14:39:15;30.50;96.00
19200;DHT22;9732;52.498;5.408;2022-07-23T14:41:42;30.50;94.60
19200;DHT22;9732;52.498;5.408;2022-07-23T14:44:09;30.70;95.30
19200;DHT22;9732;52.498;5.408;2022-07-23T14:46:37;30.70;95.30
19200;DHT22;9732;52.498;5.408;2022-07-23T14:49:04;30.70;95.40
19200;DHT22;9732;52.498;5.408;2022-07-23T14:51:31;30.70;95.80
19200;DHT22;9732;52.498;5.408;2022-07-23T14:53:58;30.90;95.00
19200;DHT22;9732;52.498;5.408;2022-07-23T14:56:24;30.90;95.50
19200;DHT22;9732;52.498;5.408;2022-07-23T14:58:51;30.90;94.90
19200;DHT22;9732;52.498;5.408;2022-07-23T15:01:18;30.80;95.60
19200;DHT22;9732;52.498;5.408;2022-07-23T15:03:46;30.60;96.30
19200;DHT22;9732;52.498;5.408;2022-07-23T15:06:12;30.40;96.00
19200;DHT22;9732;52.498;5.408;2022-07-23T15:08:39;30.20;96.30
19200;DHT22;9732;52.498;5.408;2022-07-23T15:11:06;29.70;96.50
19200;DHT22;9732;52.498;5.408;2022-07-23T15:13:34;29.30;97.50
19200;DHT22;9732;52.498;5.408;2022-07-23T15:16:01;28.90;97.70
19200;DHT22;9732;52.498;5.408;2022-07-23T15:18:29;28.60;98.80
19200;DHT22;9732;52.498;5.408;2022-07-23T15:20:57;28.50;99.20
19200;DHT22;9732;52.498;5.408;2022-07-23T15:23:24;28.60;98.80
19200;DHT22;9732;52.498;5.408;2022-07-23T15:25:51;28.60;98.50
19200;DHT22;9732;52.498;5.408;2022-07-23T15:28:18;28.60;98.60
19200;DHT22;9732;52.498;5.408;2022-07-23T15:30:45;28.50;98.80
19200;DHT22;9732;52.498;5.408;2022-07-23T15:33:12;28.20;99.50
19200;DHT22;9732;52.498;5.408;2022-07-23T15:35:38;28.10;97.60
19200;DHT22;9732;52.498;5.408;2022-07-23T15:38:06;27.90;98.90
19200;DHT22;9732;52.498;5.408;2022-07-23T15:40:33;27.60;98.80
19200;DHT22;9732;52.498;5.408;2022-07-23T15:43:00;27.40;99.90
19200;DHT22;9732;52.498;5.408;2022-07-23T15:45:27;27.20;99.20
19200;DHT22;9732;52.498;5.408;2022-07-23T15:47:54;27.00;99.90
19200;DHT22;9732;52.498;5.408;2022-07-23T15:50:21;26.90;99.90
19200;DHT22;9732;52.498;5.408;2022-07-23T15:52:48;26.70;99.90
19200;DHT22;9732;52.498;5.408;2022-07-23T15:55:16;26.40;99.90
19200;DHT22;9732;52.498;5.408;2022-07-23T15:57:43;26.30;99.90
19200;DHT22;9732;52.498;5.408;2022-07-23T16:00:11;26.40;99.90
19200;DHT22;9732;52.498;5.408;2022-07-23T16:02:37;26.40;99.90
19200;DHT22;9732;52.498;5.408;2022-07-23T16:05:05;26.40;99.90
19200;DHT22;9732;52.498;5.408;2022-07-23T16:07:32;26.60;99.90
19200;DHT22;9732;52.498;5.408;2022-07-23T16:10:03;26.60;99.90
19200;DHT22;9732;52.498;5.408;2022-07-23T16:12:31;26.70;99.90
19200;DHT22;9732;52.498;5.408;2022-07-23T16:14:58;26.60;99.90
19200;DHT22;9732;52.498;5.408;2022-07-23T16:17:25;26.50;99.90
19200;DHT22;9732;52.498;5.408;2022-07-23T16:19:51;26.40;99.90
19200;DHT22;9732;52.498;5.408;2022-07-23T16:22:18;26.30;99.90
19200;DHT22;9732;52.498;5.408;2022-07-23T16:24:45;26.30;99.90
19200;DHT22;9732;52.498;5.408;2022-07-23T16:27:11;26.30;99.90
19200;DHT22;9732;52.498;5.408;2022-07-23T16:29:40;26.20;99.90
19200;DHT22;9732;52.498;5.408;2022-07-23T16:32:06;26.30;99.90
19200;DHT22;9732;52.498;5.408;2022-07-23T16:34:33;26.20;99.90
19200;DHT22;9732;52.498;5.408;2022-07-23T16:37:00;26.20;99.90
19200;DHT22;9732;52.498;5.408;2022-07-23T16:39:27;26.30;99.90
19200;DHT22;9732;52.498;5.408;2022-07-23T16:41:53;26.20;99.90
19200;DHT22;9732;52.498;5.408;2022-07-23T16:44:20;26.20;99.90
19200;DHT22;9732;52.498;5.408;2022-07-23T16:46:48;26.20;99.90
19200;DHT22;9732;52.498;5.408;2022-07-23T16:49:15;26.20;99.90
19200;DHT22;9732;52.498;5.408;2022-07-23T16:51:42;26.10;99.90
19200;DHT22;9732;52.498;5.408;2022-07-23T16:54:09;26.10;99.90
19200;DHT22;9732;52.498;5.408;2022-07-23T16:56:35;26.10;99.90
19200;DHT22;9732;52.498;5.408;2022-07-23T16:59:02;25.90;99.90
19200;DHT22;9732;52.498;5.408;2022-07-23T17:01:29;25.80;99.90
19200;DHT22;9732;52.498;5.408;2022-07-23T17:03:57;25.70;99.90
19200;DHT22;9732;52.498;5.408;2022-07-23T17:06:24;25.60;99.90
19200;DHT22;9732;52.498;5.408;2022-07-23T17:08:50;25.70;99.90
19200;DHT22;9732;52.498;5.408;2022-07-23T17:11:17;25.70;99.90
19200;DHT22;9732;52.498;5.408;2022-07-23T17:13:44;25.70;99.90
19200;DHT22;9732;52.498;5.408;2022-07-23T17:16:11;25.70;99.90
19200;DHT22;9732;52.498;5.408;2022-07-23T17:18:37;25.60;99.90
19200;DHT22;9732;52.498;5.408;2022-07-23T17:21:06;25.60;99.90
19200;DHT22;9732;52.498;5.408;2022-07-23T17:23:32;25.50;99.90
19200;DHT22;9732;52.498;5.408;2022-07-23T17:26:00;25.40;99.90
19200;DHT22;9732;52.498;5.408;2022-07-23T17:28:27;25.30;99.90
19200;DHT22;9732;52.498;5.408;2022-07-23T17:30:54;25.30;99.90
19200;DHT22;9732;52.498;5.408;2022-07-23T17:33:20;25.30;99.90
19200;DHT22;9732;52.498;5.408;2022-07-23T17:35:47;25.40;99.90
19200;DHT22;9732;52.498;5.408;2022-07-23T17:38:19;25.50;99.90
19200;DHT22;9732;52.498;5.408;2022-07-23T17:40:45;25.60;99.90
19200;DHT22;9732;52.498;5.408;2022-07-23T17:43:12;25.60;99.90
19200;DHT22;9732;52.498;5.408;2022-07-23T17:45:39;25.50;99.90
19200;DHT22;9732;52.498;5.408;2022-07-23T17:48:06;25.50;99.90
19200;DHT22;9732;52.498;5.408;2022-07-23T17:50:33;25.60;99.90
19200;DHT22;9732;52.498;5.408;2022-07-23T17:53:00;25.60;99.90
19200;DHT22;9732;52.498;5.408;2022-07-23T17:55:28;25.70;99.90
19200;DHT22;9732;52.498;5.408;2022-07-23T17:57:55;25.70;99.90
19200;DHT22;9732;52.498;5.408;2022-07-23T18:00:27;25.70;99.90
19200;DHT22;9732;52.498;5.408;2022-07-23T18:02:54;25.60;99.90
19200;DHT22;9732;52.498;5.408;2022-07-23T18:05:21;25.50;99.90
19200;DHT22;9732;52.498;5.408;2022-07-23T18:07:48;25.50;99.90
19200;DHT22;9732;52.498;5.408;2022-07-23T18:10:15;25.50;99.90
19200;DHT22;9732;52.498;5.408;2022-07-23T18:12:43;25.50;99.90
19200;DHT22;9732;52.498;5.408;2022-07-23T18:15:10;25.40;99.90
19200;DHT22;9732;52.498;5.408;2022-07-23T18:17:37;25.40;99.90
19200;DHT22;9732;52.498;5.408;2022-07-23T18:20:05;25.30;99.90
19200;DHT22;9732;52.498;5.408;2022-07-23T18:22:33;25.20;99.90
19200;DHT22;9732;52.498;5.408;2022-07-23T18:25:00;25.20;99.90
19200;DHT22;9732;52.498;5.408;2022-07-23T18:27:27;25.10;99.90
19200;DHT22;9732;52.498;5.408;2022-07-23T18:29:57;25.00;99.90
19200;DHT22;9732;52.498;5.408;2022-07-23T18:32:24;24.90;99.90
19200;DHT22;9732;52.498;5.408;2022-07-23T18:34:52;24.90;99.90
19200;DHT22;9732;52.498;5.408;2022-07-23T18:37:19;24.80;99.90
19200;DHT22;9732;52.498;5.408;2022-07-23T18:39:46;24.70;99.90
19200;DHT22;9732;52.498;5.408;2022-07-23T18:42:14;24.60;99.90
19200;DHT22;9732;52.498;5.408;2022-07-23T18:44:41;24.50;99.90